Terminal Aerodrome Forecast
Issued by NWS Wakefield, VA

Home | Current Version | Previous Version | Text Only | Print | Product List | Glossary On
Versions: 1 2 3 4 5 6 7 8 9 10 11 12 13 14 15 16 17 18
000
FTUS41 KAKQ 260548 RRA
TAFRIC
TAF
KRIC 260548Z 2606/2706 02006KT 5SM BR BKN005 OVC015
     FM260800 03006KT 3SM -RA BR OVC005
     FM261500 02007KT P6SM OVC010
     FM262000 01006KT P6SM OVC050
     FM270000 34002KT P6SM SCT250=

USA.gov is the U.S. government's official web portal to all federal, state and local government web resources and services.